Time;durP1;ratioP1;P1;durP2;ratioP2;P2;SDS_P1;SDS_P2;PMS_P1;PMS_P2;Temp;Humidity;BMP_temperature;BMP_pressure;BME280_temperature;BME280_humidity;BME280_pressure;Samples;Min_cycle;Max_cycle;Signal;HPM_P1;HPM_P2
2021/12/30 00:01:06;;;;;;;64.13;14.68;;;;;;;10.09;100.00;100849.63;5040370;28;20148;-48
2021/12/30 00:03:31;;;;;;;72.95;15.68;;;;;;;10.11;100.00;100853.94;5074779;28;20055;-47
2021/12/30 00:05:57;;;;;;;56.35;14.18;;;;;;;10.14;100.00;100839.84;5074486;28;20025;-52
2021/12/30 00:08:23;;;;;;;65.57;15.27;;;;;;;10.12;100.00;100855.66;5056880;28;20119;-49
2021/12/30 00:10:49;;;;;;;61.80;15.55;;;;;;;10.11;100.00;100851.28;5074123;28;20532;-46
2021/12/30 00:13:14;;;;;;;62.50;14.48;;;;;;;10.11;100.00;100837.28;5074038;28;20055;-48
2021/12/30 00:15:40;;;;;;;51.10;13.18;;;;;;;9.86;100.00;100794.25;5056530;28;20033;-47
2021/12/30 00:18:08;;;;;;;58.90;13.70;;;;;;;10.08;100.00;100821.59;5074259;28;20383;-51
2021/12/30 00:20:33;;;;;;;58.35;14.30;;;;;;;10.18;100.00;100854.66;5074651;28;20040;-49
2021/12/30 00:23:04;;;;;;;53.15;14.25;;;;;;;9.80;100.00;100778.66;5074487;28;20036;-50
2021/12/30 00:25:37;;;;;;;52.63;13.00;;;;;;;10.21;100.00;100846.66;5074927;28;20036;-48
2021/12/30 00:28:02;;;;;;;54.65;14.95;;;;;;;10.12;100.00;100820.59;5074244;28;20033;-48
2021/12/30 00:30:28;;;;;;;59.25;14.13;;;;;;;10.20;100.00;100829.13;5074504;28;20032;-48
2021/12/30 00:32:53;;;;;;;61.17;14.80;;;;;;;9.88;100.00;100779.28;5074444;28;20021;-48
2021/12/30 00:35:18;;;;;;;58.75;14.00;;;;;;;9.90;100.00;100770.41;5074089;28;20036;-47
2021/12/30 00:37:44;;;;;;;56.40;14.20;;;;;;;9.93;100.00;100791.38;5074106;28;20087;-49
2021/12/30 00:40:10;;;;;;;55.00;13.90;;;;;;;10.35;100.00;100849.72;5056131;28;20033;-46
2021/12/30 00:42:35;;;;;;;60.35;14.05;;;;;;;10.06;100.00;100779.56;5073477;28;20032;-51
2021/12/30 00:45:01;;;;;;;55.60;14.00;;;;;;;10.51;100.00;100837.78;5073808;28;20060;-48
2021/12/30 00:47:27;;;;;;;61.55;13.30;;;;;;;10.46;100.00;100828.31;5073893;28;20174;-50
2021/12/30 00:49:52;;;;;;;55.88;11.85;;;;;;;10.34;100.00;100789.25;5073615;28;20068;-50
2021/12/30 00:52:17;;;;;;;54.17;12.75;;;;;;;10.61;100.00;100814.66;5055719;28;20047;-46
2021/12/30 00:54:43;;;;;;;50.95;11.82;;;;;;;10.67;100.00;100832.91;5074201;28;20043;-47
2021/12/30 00:57:08;;;;;;;50.28;11.65;;;;;;;10.71;100.00;100840.63;5073952;28;20071;-50
2021/12/30 00:59:34;;;;;;;55.80;13.50;;;;;;;10.69;100.00;100831.94;5055944;28;20039;-47
2021/12/30 01:01:59;;;;;;;41.50;12.52;;;;;;;10.76;100.00;100845.75;5073805;28;20036;-49
2021/12/30 01:04:24;;;;;;;48.13;11.75;;;;;;;10.83;100.00;100833.25;5073534;28;20048;-50
2021/12/30 01:06:52;;;;;;;43.60;10.50;;;;;;;10.91;100.00;100842.63;5073609;28;20039;-51
2021/12/30 01:09:17;;;;;;;40.72;11.27;;;;;;;10.52;100.00;100764.97;5073519;28;20033;-47
2021/12/30 01:11:42;;;;;;;37.78;9.65;;;;;;;10.97;100.00;100833.66;5073377;28;20457;-50
2021/12/30 01:14:21;;;;;;;42.28;9.95;;;;;;;11.02;100.00;100824.69;5073382;28;20364;-49
2021/12/30 01:16:51;;;;;;;35.55;10.80;;;;;;;11.08;100.00;100844.69;5055466;28;20468;-47
2021/12/30 01:21:50;;;;;;;44.10;11.05;;;;;;;11.13;100.00;100840.97;5056340;28;20040;-48
2021/12/30 01:24:16;;;;;;;39.50;12.32;;;;;;;10.83;100.00;100786.69;5073380;28;20032;-48
2021/12/30 01:26:41;;;;;;;41.28;13.43;;;;;;;11.06;100.00;100831.53;5073086;28;20521;-46
2021/12/30 01:29:07;;;;;;;40.00;15.20;;;;;;;11.08;100.00;100860.47;5072768;28;20456;-47
2021/12/30 01:31:32;;;;;;;44.67;16.80;;;;;;;11.03;100.00;100844.81;5073034;28;20029;-48
2021/12/30 01:33:58;;;;;;;47.42;18.40;;;;;;;11.10;100.00;100866.53;5073093;28;20399;-48
2021/12/30 01:36:26;;;;;;;46.10;17.70;;;;;;;10.76;100.00;100810.66;5072887;28;20024;-50
2021/12/30 01:38:52;;;;;;;54.80;18.33;;;;;;;11.00;100.00;100870.44;5072791;28;20043;-52
2021/12/30 01:41:18;;;;;;;40.22;18.48;;;;;;;10.99;100.00;100887.13;5073050;28;20036;-52
2021/12/30 01:43:43;;;;;;;43.03;18.27;;;;;;;10.67;100.00;100840.78;5054917;28;20112;-50
2021/12/30 01:46:09;;;;;;;42.45;19.33;;;;;;;10.73;100.00;100830.06;5072797;28;20451;-47
2021/12/30 01:48:35;;;;;;;42.53;17.65;;;;;;;11.07;100.00;100888.59;5054979;28;20032;-47
2021/12/30 01:51:01;;;;;;;38.35;16.77;;;;;;;10.72;100.00;100823.06;5055035;28;20033;-50
2021/12/30 01:53:26;;;;;;;39.38;18.23;;;;;;;11.00;100.00;100862.53;5072501;28;20533;-48
2021/12/30 01:55:52;;;;;;;44.30;17.73;;;;;;;11.14;100.00;100897.16;5072744;28;20031;-47
2021/12/30 01:58:17;;;;;;;44.72;16.90;;;;;;;11.06;100.00;100883.38;5072676;28;20032;-47
2021/12/30 02:00:45;;;;;;;34.22;15.45;;;;;;;10.93;100.00;100855.72;5054835;28;20555;-50
2021/12/30 02:03:11;;;;;;;41.92;16.15;;;;;;;11.14;100.00;100878.72;5072467;28;20110;-49
2021/12/30 02:05:37;;;;;;;35.30;15.15;;;;;;;11.10;100.00;100893.75;5072591;28;20035;-48
2021/12/30 02:08:05;;;;;;;28.75;12.07;;;;;;;11.21;100.00;100898.66;5054933;28;20468;-49
2021/12/30 02:10:30;;;;;;;29.33;12.27;;;;;;;11.23;100.00;100905.63;5054664;28;20036;-49
2021/12/30 02:12:56;;;;;;;25.90;12.10;;;;;;;11.23;100.00;100894.22;5072674;28;20368;-47
2021/12/30 02:15:21;;;;;;;27.00;11.30;;;;;;;11.30;100.00;100882.53;5072350;28;20124;-48
2021/12/30 02:17:48;;;;;;;23.90;11.52;;;;;;;11.29;100.00;100888.72;5054398;28;20487;-49
2021/12/30 02:20:46;;;;;;;24.33;11.00;;;;;;;11.32;100.00;100882.50;5072304;28;20025;-49
2021/12/30 02:23:17;;;;;;;20.20;10.30;;;;;;;11.36;100.00;100892.00;5072307;28;20391;-51
2021/12/30 02:25:43;;;;;;;25.40;10.27;;;;;;;11.04;100.00;100840.41;5072293;28;20025;-49
2021/12/30 02:28:11;;;;;;;21.75;10.27;;;;;;;11.37;100.00;100899.88;5072334;28;20034;-47
2021/12/30 02:30:37;;;;;;;16.98;9.10;;;;;;;11.37;100.00;100886.69;5071842;28;20036;-51
2021/12/30 02:33:03;;;;;;;16.10;9.13;;;;;;;11.14;100.00;100847.09;5054651;28;20322;-48
2021/12/30 02:35:28;;;;;;;21.55;10.23;;;;;;;11.12;100.00;100860.31;5072394;28;20032;-52
2021/12/30 02:37:54;;;;;;;18.83;8.82;;;;;;;11.40;100.00;100912.06;5072348;28;20476;-47
2021/12/30 02:40:32;;;;;;;18.38;9.27;;;;;;;11.41;100.00;100916.44;5054387;28;20028;-48
2021/12/30 02:42:59;;;;;;;21.75;9.55;;;;;;;11.40;100.00;100906.81;5072206;28;20551;-48
2021/12/30 02:45:24;;;;;;;22.27;9.77;;;;;;;11.35;100.00;100909.59;5054124;28;20111;-46
2021/12/30 02:47:50;;;;;;;16.17;9.32;;;;;;;11.32;100.00;100901.81;5054254;28;20111;-49
2021/12/30 02:50:15;;;;;;;19.33;9.45;;;;;;;11.09;100.00;100865.69;5072134;28;20041;-48
2021/12/30 02:52:40;;;;;;;21.67;10.20;;;;;;;11.36;100.00;100903.41;5072195;28;20051;-49
2021/12/30 02:55:06;;;;;;;21.92;9.40;;;;;;;11.41;100.00;100908.53;5072186;28;20036;-50
2021/12/30 02:57:32;;;;;;;30.77;10.60;;;;;;;11.13;100.00;100867.31;5071888;28;20407;-45
2021/12/30 02:59:57;;;;;;;24.25;10.43;;;;;;;11.41;100.00;100901.50;5071797;28;20066;-52
2021/12/30 03:02:22;;;;;;;25.52;10.63;;;;;;;11.45;100.00;100910.13;5071823;28;20124;-51
2021/12/30 03:04:48;;;;;;;26.75;11.40;;;;;;;11.39;100.00;100910.34;5053943;28;20151;-47
2021/12/30 03:07:17;;;;;;;30.70;12.13;;;;;;;11.22;100.00;100877.53;5054170;28;20135;-46
2021/12/30 03:09:44;;;;;;;27.45;13.63;;;;;;;11.38;100.00;100892.81;5054641;28;20119;-49
2021/12/30 03:12:09;;;;;;;36.30;15.35;;;;;;;11.04;100.00;100849.19;5072014;28;20029;-48
2021/12/30 03:14:41;;;;;;;35.15;15.07;;;;;;;11.05;100.00;100843.00;5071801;28;20073;-49
2021/12/30 03:17:06;;;;;;;42.22;16.73;;;;;;;11.35;100.00;100892.94;5054054;28;20028;-49
2021/12/30 03:19:32;;;;;;;44.55;17.88;;;;;;;11.42;100.00;100897.94;5054138;28;20037;-48
2021/12/30 03:21:58;;;;;;;40.13;16.58;;;;;;;11.38;100.00;100896.31;5071876;28;20135;-49
2021/12/30 03:24:23;;;;;;;37.22;15.93;;;;;;;11.21;100.00;100870.53;5071586;28;20111;-48
2021/12/30 03:26:48;;;;;;;38.17;15.30;;;;;;;11.49;100.00;100899.44;5053589;28;20215;-50
2021/12/30 03:29:13;;;;;;;38.42;16.42;;;;;;;11.42;100.00;100899.69;5053382;28;20041;-47
2021/12/30 03:31:39;;;;;;;36.30;14.45;;;;;;;11.34;100.00;100894.69;5071737;28;20040;-49
2021/12/30 03:34:04;;;;;;;37.65;15.00;;;;;;;11.21;100.00;100867.91;5071770;28;20056;-50
2021/12/30 03:36:32;;;;;;;35.97;15.98;;;;;;;11.04;100.00;100837.78;5071755;28;20034;-51
2021/12/30 03:38:57;;;;;;;38.63;15.90;;;;;;;11.44;100.00;100917.16;5071657;28;20032;-46
2021/12/30 03:41:28;;;;;;;40.72;14.25;;;;;;;11.39;100.00;100905.06;5072091;28;20036;-48
2021/12/30 03:43:55;;;;;;;35.42;14.38;;;;;;;11.08;100.00;100865.75;5075135;28;20533;-49
2021/12/30 03:46:20;;;;;;;39.00;15.38;;;;;;;11.43;100.00;100935.69;5075247;28;20024;-49
2021/12/30 03:48:46;;;;;;;47.85;17.23;;;;;;;11.21;100.00;100903.91;5075159;28;20035;-47
2021/12/30 03:51:20;;;;;;;49.08;18.10;;;;;;;11.16;100.00;100900.59;5075135;28;20040;-47
2021/12/30 03:53:49;;;;;;;45.45;19.17;;;;;;;11.10;100.00;100885.00;5075009;28;20040;-48
2021/12/30 03:56:15;;;;;;;46.67;20.60;;;;;;;11.32;100.00;100933.44;5074805;28;20025;-49
2021/12/30 03:58:42;;;;;;;54.40;23.17;;;;;;;11.35;100.00;100928.06;5057077;28;20437;-46
2021/12/30 04:01:10;;;;;;;48.55;23.35;;;;;;;11.03;100.00;100867.69;5057029;28;20032;-49
2021/12/30 04:03:35;;;;;;;49.78;25.27;;;;;;;11.35;100.00;100920.16;5074763;28;20051;-46
2021/12/30 04:06:01;;;;;;;59.65;27.00;;;;;;;11.34;100.00;100934.22;5074743;28;20048;-48
2021/12/30 04:08:26;;;;;;;46.70;24.90;;;;;;;11.38;100.00;100925.31;5056734;28;20125;-49
2021/12/30 04:10:51;;;;;;;53.60;22.65;;;;;;;11.41;100.00;100919.06;5074493;28;20045;-48
2021/12/30 04:13:17;;;;;;;42.72;21.60;;;;;;;11.39;100.00;100919.13;5074616;28;20052;-46
2021/12/30 04:15:42;;;;;;;44.67;21.55;;;;;;;11.38;100.00;100927.94;5074606;28;20035;-49
2021/12/30 04:18:08;;;;;;;46.15;20.75;;;;;;;11.45;100.00;100921.53;5074743;28;20442;-47
2021/12/30 04:20:33;;;;;;;47.38;21.27;;;;;;;11.25;100.00;100902.91;5074594;28;20043;-48
2021/12/30 04:22:58;;;;;;;49.30;20.23;;;;;;;11.05;100.00;100863.22;5074496;28;20029;-47
2021/12/30 04:25:24;;;;;;;37.90;19.65;;;;;;;11.12;100.00;100872.66;5074368;28;20028;-49
2021/12/30 04:27:49;;;;;;;46.35;20.08;;;;;;;11.40;100.00;100930.53;5056618;28;20041;-50
2021/12/30 04:30:15;;;;;;;45.67;20.60;;;;;;;11.07;100.00;100871.91;5074280;28;20123;-48
2021/12/30 04:32:41;;;;;;;44.03;18.77;;;;;;;11.08;100.00;100879.78;5056425;28;20084;-47
2021/12/30 04:35:08;;;;;;;40.63;18.33;;;;;;;11.27;100.00;100909.00;5074197;28;20502;-47
2021/12/30 04:37:33;;;;;;;42.15;17.98;;;;;;;11.41;100.00;100919.06;5074216;28;20036;-48
2021/12/30 04:39:59;;;;;;;35.10;14.95;;;;;;;11.42;100.00;100920.78;5074142;28;20043;-47
2021/12/30 04:42:25;;;;;;;44.63;14.65;;;;;;;11.22;100.00;100887.22;5074292;28;20051;-49
2021/12/30 04:44:50;;;;;;;41.83;14.20;;;;;;;10.82;100.00;100803.44;5074182;28;20040;-47
2021/12/30 04:47:16;;;;;;;31.55;13.27;;;;;;;11.32;100.00;100899.16;5056083;28;20043;-46
2021/12/30 04:49:42;;;;;;;36.80;14.75;;;;;;;11.42;100.00;100928.69;5073990;28;20049;-48
2021/12/30 04:52:07;;;;;;;33.20;15.60;;;;;;;11.45;100.00;100915.41;5073908;28;20033;-48
2021/12/30 04:54:33;;;;;;;38.25;16.45;;;;;;;11.34;100.00;100915.78;5073765;28;20043;-47
2021/12/30 04:56:59;;;;;;;35.33;17.10;;;;;;;11.12;100.00;100875.28;5055783;28;20356;-48
2021/12/30 04:59:24;;;;;;;42.67;18.25;;;;;;;11.23;100.00;100902.13;5055986;28;20086;-48
2021/12/30 05:01:50;;;;;;;47.05;18.85;;;;;;;11.34;100.00;100939.50;5055798;28;20040;-48
2021/12/30 05:04:15;;;;;;;42.22;20.33;;;;;;;11.36;100.00;100929.75;5073241;28;20055;-47
2021/12/30 05:06:40;;;;;;;47.05;19.58;;;;;;;11.35;100.00;100928.06;5073488;28;20109;-48
2021/12/30 05:09:08;;;;;;;37.00;17.98;;;;;;;11.32;100.00;100928.16;5073332;28;20064;-48
2021/12/30 05:11:35;;;;;;;30.92;17.05;;;;;;;11.32;100.00;100912.34;5073646;28;20040;-48
2021/12/30 05:14:01;;;;;;;35.10;17.17;;;;;;;11.40;100.00;100927.88;5055577;28;20029;-49
2021/12/30 05:16:26;;;;;;;37.60;15.95;;;;;;;11.22;100.00;100890.72;5055529;28;20062;-48
2021/12/30 05:18:56;;;;;;;29.58;14.40;;;;;;;10.99;100.00;100864.28;5073195;28;20033;-49
2021/12/30 05:21:22;;;;;;;20.63;10.48;;;;;;;11.43;100.00;100940.97;5073413;28;20040;-48
2021/12/30 05:23:47;;;;;;;21.13;8.55;;;;;;;11.49;100.00;100925.81;5073211;28;20036;-48
2021/12/30 05:26:15;;;;;;;17.08;7.93;;;;;;;11.52;100.00;100930.97;5055533;28;20032;-48
2021/12/30 05:28:40;;;;;;;22.33;7.63;;;;;;;11.26;100.00;100889.72;5073133;28;20593;-48
2021/12/30 05:31:06;;;;;;;23.30;7.43;;;;;;;11.56;100.00;100934.34;5055333;28;20123;-48
2021/12/30 05:33:31;;;;;;;18.73;5.65;;;;;;;11.56;100.00;100921.16;5073127;28;20385;-49
2021/12/30 05:35:56;;;;;;;22.25;6.57;;;;;;;11.56;100.00;100927.28;5073148;28;20392;-48
2021/12/30 05:38:22;;;;;;;16.38;6.05;;;;;;;11.32;100.00;100871.03;5072927;28;20045;-49
2021/12/30 05:40:47;;;;;;;17.23;5.72;;;;;;;11.59;100.00;100921.03;5073000;28;20028;-48
2021/12/30 05:43:12;;;;;;;17.33;5.90;;;;;;;11.28;100.00;100865.91;5072759;28;20462;-49
2021/12/30 05:45:38;;;;;;;20.05;5.30;;;;;;;11.33;100.00;100866.63;5072898;28;20127;-51
2021/12/30 05:48:04;;;;;;;18.92;5.57;;;;;;;11.34;100.00;100865.72;5072940;28;20468;-52
2021/12/30 05:50:32;;;;;;;15.85;4.78;;;;;;;11.69;100.00;100927.72;5072756;28;20067;-48
2021/12/30 05:52:58;;;;;;;17.50;4.30;;;;;;;11.75;100.00;100951.28;5072619;28;20472;-48
2021/12/30 05:55:24;;;;;;;14.52;4.07;;;;;;;11.45;100.00;100891.69;5054982;28;20025;-52
2021/12/30 05:57:52;;;;;;;10.63;4.28;;;;;;;11.50;100.00;100895.88;5054935;28;20472;-48
2021/12/30 06:00:19;;;;;;;15.38;5.78;;;;;;;11.84;100.00;100946.56;5055101;28;20024;-52
2021/12/30 06:02:45;;;;;;;18.98;6.13;;;;;;;11.86;100.00;100964.94;5073142;28;20037;-49
2021/12/30 06:05:10;;;;;;;18.88;7.32;;;;;;;11.47;100.00;100872.25;5053978;28;20102;-49
2021/12/30 06:07:36;;;;;;;17.33;7.88;;;;;;;11.92;100.00;100964.72;5054614;28;20046;-48
2021/12/30 06:10:03;;;;;;;17.58;9.00;;;;;;;11.81;100.00;100938.75;5054628;28;20043;-49
2021/12/30 06:12:28;;;;;;;14.07;7.47;;;;;;;11.70;100.00;100919.78;5072244;28;20035;-51
2021/12/30 06:14:53;;;;;;;14.15;7.97;;;;;;;11.65;100.00;100920.84;5072363;28;20423;-49
2021/12/30 06:17:19;;;;;;;17.48;8.27;;;;;;;11.66;100.00;100925.22;5072466;28;20037;-49
2021/12/30 06:19:44;;;;;;;14.93;9.13;;;;;;;11.97;100.00;100956.63;5054471;28;20101;-50
2021/12/30 06:22:11;;;;;;;18.48;9.77;;;;;;;11.96;100.00;100978.69;5054439;28;20036;-48
2021/12/30 06:24:37;;;;;;;18.55;9.73;;;;;;;11.87;100.00;100952.63;5072290;28;20035;-53
2021/12/30 06:27:02;;;;;;;17.20;10.07;;;;;;;11.69;100.00;100909.28;5054559;28;20123;-49
2021/12/30 06:29:27;;;;;;;19.42;10.00;;;;;;;12.00;100.00;100973.22;5072288;28;20123;-49
2021/12/30 06:31:53;;;;;;;14.07;7.72;;;;;;;12.01;100.00;100972.31;5072164;28;20602;-49
2021/12/30 06:34:18;;;;;;;13.77;7.00;;;;;;;11.97;100.00;100954.88;5072388;28;20033;-50
2021/12/30 06:36:44;;;;;;;17.13;6.53;;;;;;;11.84;100.00;100943.91;5037614;28;20029;-49
2021/12/30 06:39:09;;;;;;;12.80;5.45;;;;;;;11.97;100.00;100972.47;5072643;28;20028;-48
2021/12/30 06:41:34;;;;;;;14.00;5.45;;;;;;;11.98;100.00;100972.44;5072258;28;20036;-47
2021/12/30 06:44:00;;;;;;;9.82;4.80;;;;;;;11.61;100.00;100916.59;5072233;28;20036;-50
2021/12/30 06:46:26;;;;;;;12.40;5.15;;;;;;;11.98;100.00;100984.75;5071847;28;20029;-48
2021/12/30 06:48:51;;;;;;;13.43;5.32;;;;;;;11.83;100.00;100981.75;5072109;28;20488;-48
2021/12/30 06:51:18;;;;;;;10.32;4.75;;;;;;;11.78;100.00;100988.97;5053955;28;20079;-50
2021/12/30 06:53:44;;;;;;;10.15;5.43;;;;;;;11.84;100.00;101009.00;5071902;28;20029;-47
2021/12/30 06:56:09;;;;;;;10.98;4.70;;;;;;;11.74;100.00;100975.91;5054320;28;20047;-50
2021/12/30 06:58:35;;;;;;;7.65;4.80;;;;;;;11.78;100.00;101012.69;5054036;28;20055;-52
2021/12/30 07:01:00;;;;;;;10.20;4.57;;;;;;;11.41;100.00;100943.66;5037601;28;20032;-48
2021/12/30 07:03:26;;;;;;;13.77;4.90;;;;;;;11.72;100.00;100991.81;5053898;28;20488;-53
2021/12/30 07:05:54;;;;;;;14.60;5.35;;;;;;;11.70;100.00;101019.16;5071895;28;20165;-52
2021/12/30 07:08:19;;;;;;;12.73;5.95;;;;;;;11.59;100.00;101016.81;5072246;28;20029;-53
2021/12/30 07:10:45;;;;;;;20.58;7.80;;;;;;;11.67;100.00;101011.31;5072033;28;20036;-49
2021/12/30 07:13:10;;;;;;;27.83;9.13;;;;;;;11.63;100.00;101000.00;5072048;28;20043;-50
2021/12/30 07:15:35;;;;;;;30.23;10.45;;;;;;;11.58;100.00;101003.72;5071844;28;20032;-48
2021/12/30 07:18:01;;;;;;;33.13;9.70;;;;;;;11.17;100.00;100942.72;5074773;28;20047;-52
2021/12/30 07:20:26;;;;;;;29.63;9.57;;;;;;;11.52;100.00;101015.31;5057686;28;20041;-48
2021/12/30 07:22:51;;;;;;;28.90;9.48;;;;;;;11.32;100.00;100973.78;5075550;28;20124;-53
2021/12/30 07:25:17;;;;;;;28.77;9.88;;;;;;;11.10;100.00;100948.22;5075451;28;20060;-50
2021/12/30 07:27:45;;;;;;;32.17;9.30;;;;;;;11.44;100.00;101021.78;5075488;28;20032;-52
2021/12/30 07:30:11;;;;;;;27.83;9.00;;;;;;;11.52;100.00;101007.41;5075492;28;20047;-53
2021/12/30 07:32:36;;;;;;;28.85;8.90;;;;;;;11.50;100.00;101025.03;5057486;28;20127;-49
2021/12/30 07:35:02;;;;;;;35.53;9.00;;;;;;;11.47;100.00;101040.13;5057243;28;20464;-49
2021/12/30 07:37:28;;;;;;;33.65;9.30;;;;;;;11.51;100.00;101044.34;5075239;28;20028;-48
2021/12/30 07:39:53;;;;;;;32.28;9.70;;;;;;;11.34;100.00;101018.56;5075304;28;20040;-47
2021/12/30 07:42:18;;;;;;;34.47;9.82;;;;;;;11.51;100.00;101049.63;5075049;28;20369;-48
2021/12/30 07:44:44;;;;;;;30.63;8.75;;;;;;;11.36;100.00;101024.63;5075212;28;20119;-47
2021/12/30 07:47:09;;;;;;;31.05;9.43;;;;;;;11.18;100.00;100997.09;5057278;28;20468;-48
2021/12/30 07:49:38;;;;;;;31.55;9.35;;;;;;;11.10;100.00;101008.81;5056985;28;20047;-47
2021/12/30 07:52:04;;;;;;;38.95;10.18;;;;;;;11.45;100.00;101071.78;5057451;28;20028;-46
2021/12/30 07:54:30;;;;;;;34.70;9.30;;;;;;;11.45;100.00;101065.66;5075159;28;20043;-50
2021/12/30 07:56:55;;;;;;;40.17;9.43;;;;;;;11.19;100.00;101025.19;5074737;28;20048;-49
2021/12/30 07:59:21;;;;;;;35.95;8.57;;;;;;;10.76;100.00;100931.78;5074755;28;20479;-53
2021/12/30 08:01:46;;;;;;;41.28;9.45;;;;;;;11.44;100.00;101064.78;5074717;28;20040;-51
2021/12/30 08:04:11;;;;;;;47.53;9.32;;;;;;;11.48;100.00;101066.41;5074249;28;20522;-52
2021/12/30 08:06:37;;;;;;;41.05;9.68;;;;;;;11.30;100.00;101052.06;5074886;28;20041;-49
2021/12/30 08:09:02;;;;;;;38.63;9.27;;;;;;;11.52;100.00;101068.06;5074332;28;20028;-51
2021/12/30 08:11:28;;;;;;;39.33;10.10;;;;;;;11.52;100.00;101070.69;5074775;28;20109;-49
2021/12/30 08:13:53;;;;;;;39.03;9.27;;;;;;;11.26;100.00;101025.88;5074606;28;20033;-50
2021/12/30 08:16:18;;;;;;;40.55;10.65;;;;;;;11.46;100.00;101062.09;5074391;28;20044;-52
2021/12/30 08:18:44;;;;;;;39.67;10.90;;;;;;;11.54;100.00;101078.53;5074815;28;20063;-49
2021/12/30 08:21:10;;;;;;;46.85;10.07;;;;;;;11.25;100.00;101040.81;5074602;28;20058;-48
2021/12/30 08:23:35;;;;;;;52.50;10.60;;;;;;;11.56;100.00;101096.03;5074581;28;20029;-48
2021/12/30 08:26:05;;;;;;;51.50;10.45;;;;;;;11.52;100.00;101081.22;5074401;28;20200;-49
2021/12/30 08:28:31;;;;;;;47.55;9.95;;;;;;;11.20;100.00;101036.59;5073974;28;20490;-53
2021/12/30 08:30:57;;;;;;;53.45;10.85;;;;;;;11.62;100.00;101110.78;5074281;28;20036;-52
2021/12/30 08:33:22;;;;;;;48.65;9.80;;;;;;;11.56;100.00;101105.69;5074121;28;20043;-54
2021/12/30 08:35:48;;;;;;;50.22;10.20;;;;;;;11.59;100.00;101100.31;5074031;28;20750;-53
2021/12/30 08:38:13;;;;;;;51.90;10.95;;;;;;;11.61;100.00;101088.84;5056360;28;20034;-50
2021/12/30 08:40:40;;;;;;;47.20;10.25;;;;;;;11.61;100.00;101109.06;5074029;28;20064;-49
2021/12/30 08:43:10;;;;;;;55.17;10.77;;;;;;;11.61;100.00;101101.16;5056207;28;20036;-49
2021/12/30 08:45:36;;;;;;;47.53;9.82;;;;;;;11.61;100.00;101107.31;5073848;28;20086;-52
2021/12/30 08:48:02;;;;;;;43.58;10.90;;;;;;;11.66;100.00;101115.06;5073924;28;20070;-51
2021/12/30 08:50:27;;;;;;;51.50;10.02;;;;;;;11.66;100.00;101113.28;5074215;28;20068;-50
2021/12/30 08:52:53;;;;;;;49.45;9.82;;;;;;;11.60;100.00;101089.75;5073937;28;20033;-51
2021/12/30 08:55:18;;;;;;;55.03;10.75;;;;;;;11.64;100.00;101119.53;5073419;28;20104;-49
2021/12/30 08:57:45;;;;;;;50.95;10.60;;;;;;;11.28;100.00;101058.28;5039234;28;20160;-48
2021/12/30 09:00:20;;;;;;;47.35;11.10;;;;;;;11.56;100.00;101105.69;5055928;28;20028;-49
2021/12/30 09:02:45;;;;;;;49.83;10.82;;;;;;;11.31;100.00;101063.47;5073840;28;20081;-51
2021/12/30 09:05:13;;;;;;;42.28;9.45;;;;;;;11.62;100.00;101114.28;5073351;28;20044;-50
2021/12/30 09:07:39;;;;;;;42.80;9.32;;;;;;;11.68;100.00;101129.91;5055788;28;20033;-52
2021/12/30 09:10:06;;;;;;;41.65;8.15;;;;;;;11.37;100.00;101080.84;5073346;28;20032;-50
2021/12/30 09:12:31;;;;;;;52.10;10.10;;;;;;;11.67;100.00;101120.28;5073325;28;20064;-45
2021/12/30 09:14:56;;;;;;;45.10;8.93;;;;;;;11.61;100.00;101101.16;5073217;28;20064;-50
2021/12/30 09:17:22;;;;;;;45.35;10.65;;;;;;;11.80;100.00;101142.72;5055532;28;20139;-53
2021/12/30 09:19:47;;;;;;;40.53;8.38;;;;;;;11.86;100.00;101128.47;5073220;28;20036;-51
2021/12/30 09:22:12;;;;;;;40.42;8.70;;;;;;;11.92;100.00;101137.97;5055559;28;20028;-53
2021/12/30 09:24:38;;;;;;;47.00;9.38;;;;;;;11.92;100.00;101141.47;5073420;28;20032;-50
2021/12/30 09:27:03;;;;;;;46.88;10.25;;;;;;;11.66;100.00;101113.28;5073071;28;20420;-50
2021/12/30 09:29:29;;;;;;;43.67;8.93;;;;;;;11.88;100.00;101165.38;5072921;28;20174;-47
2021/12/30 09:31:54;;;;;;;46.45;9.32;;;;;;;11.64;100.00;101115.13;5073203;28;20033;-52
2021/12/30 09:34:20;;;;;;;44.35;10.07;;;;;;;11.91;100.00;101142.38;5055012;28;20028;-46
2021/12/30 09:36:46;;;;;;;42.42;10.13;;;;;;;11.85;100.00;101161.03;5054936;28;20536;-52
2021/12/30 09:39:13;;;;;;;42.28;10.93;;;;;;;11.83;100.00;101169.00;5054264;28;20426;-52
2021/12/30 09:41:43;;;;;;;46.78;11.40;;;;;;;11.80;100.00;101152.41;5054810;28;20484;-52
2021/12/30 09:44:10;;;;;;;53.45;12.75;;;;;;;11.69;100.00;101162.41;5072679;28;20024;-54
2021/12/30 09:46:36;;;;;;;50.78;11.27;;;;;;;11.45;100.00;101082.31;5072840;28;20063;-49
2021/12/30 09:49:04;;;;;;;53.65;13.38;;;;;;;11.75;100.00;101170.16;5072904;28;20063;-50
2021/12/30 09:51:29;;;;;;;49.65;12.65;;;;;;;11.68;100.00;101152.78;5054869;28;20363;-48
2021/12/30 09:53:54;;;;;;;42.90;12.48;;;;;;;11.58;100.00;101122.34;5054848;28;20078;-46
2021/12/30 09:56:20;;;;;;;42.58;11.13;;;;;;;11.74;100.00;101171.06;5072691;28;20091;-51
2021/12/30 09:58:46;;;;;;;49.53;13.05;;;;;;;11.79;100.00;101158.63;5067713;28;20033;-47
2021/12/30 10:01:11;;;;;;;48.80;13.63;;;;;;;11.79;100.00;101164.72;5051985;28;20028;-51
2021/12/30 10:03:37;;;;;;;49.20;12.55;;;;;;;11.80;100.00;101169.09;5052297;28;20090;-48
2021/12/30 10:06:11;;;;;;;50.53;13.77;;;;;;;11.84;100.00;101165.47;5051302;28;20037;-49
2021/12/30 10:08:41;;;;;;;49.88;13.23;;;;;;;11.85;100.00;101171.59;5034553;28;20024;-50
2021/12/30 10:11:13;;;;;;;55.22;12.93;;;;;;;11.81;100.00;101149.75;5052020;28;20533;-49
2021/12/30 10:13:41;;;;;;;47.40;12.45;;;;;;;11.94;100.00;101173.09;5052601;28;20170;-48
2021/12/30 10:16:15;;;;;;;40.95;11.50;;;;;;;11.63;100.00;101105.47;5052484;28;20111;-49
2021/12/30 10:18:55;;;;;;;45.42;11.68;;;;;;;12.04;100.00;101177.13;5052430;28;20610;-48
2021/12/30 10:21:26;;;;;;;32.92;11.00;;;;;;;12.01;100.00;101175.47;5052320;28;20064;-49
2021/12/30 10:23:55;;;;;;;44.72;11.45;;;;;;;11.99;100.00;101165.88;5052292;28;20048;-50
2021/12/30 10:26:21;;;;;;;38.42;10.80;;;;;;;11.93;100.00;101166.06;5052343;28;20036;-48
2021/12/30 10:29:05;;;;;;;42.75;11.23;;;;;;;11.66;100.00;101131.75;5052207;28;20176;-50
2021/12/30 10:31:32;;;;;;;35.97;9.60;;;;;;;11.66;100.00;101137.00;5034439;28;20548;-49
2021/12/30 10:34:04;;;;;;;38.33;9.73;;;;;;;12.03;100.00;101185.94;5033967;28;20029;-52
2021/12/30 10:36:42;;;;;;;33.97;8.63;;;;;;;12.05;100.00;101200.84;5052191;28;20166;-49
2021/12/30 10:39:23;;;;;;;34.88;7.70;;;;;;;11.63;100.00;101125.69;5034157;28;20108;-49
2021/12/30 10:41:58;;;;;;;33.58;8.05;;;;;;;12.03;100.00;101194.75;5052165;28;20106;-50
2021/12/30 10:44:24;;;;;;;37.55;7.90;;;;;;;11.67;100.00;101125.56;5051976;28;20029;-51
2021/12/30 10:46:50;;;;;;;27.75;7.05;;;;;;;11.77;100.00;101129.66;5034085;28;20030;-49
2021/12/30 10:49:27;;;;;;;31.70;8.05;;;;;;;12.11;100.00;101187.41;5034174;28;20029;-48
2021/12/30 10:51:56;;;;;;;35.15;7.65;;;;;;;12.10;100.00;101182.22;5055149;28;20029;-48
2021/12/30 10:54:30;;;;;;;24.20;7.28;;;;;;;12.08;100.00;101176.13;5056175;28;20029;-49
2021/12/30 10:56:55;;;;;;;25.20;8.32;;;;;;;12.10;100.00;101193.63;5055878;28;20040;-47
2021/12/30 10:59:30;;;;;;;40.13;8.73;;;;;;;12.13;100.00;101219.94;5056099;28;20033;-49
2021/12/30 11:02:05;;;;;;;30.75;8.45;;;;;;;12.18;100.00;101199.50;5038287;28;20476;-52
2021/12/30 11:04:40;;;;;;;25.75;10.63;;;;;;;11.80;100.00;101132.19;5054793;28;20045;-50